Time;durP1;ratioP1;P1;durP2;ratioP2;P2;SDS_P1;SDS_P2;PMS_P1;PMS_P2;Temp;Humidity;BMP_temperature;BMP_pressure;BME280_temperature;BME280_humidity;BME280_pressure;Samples;Min_cycle;Max_cycle;Signal;HPM_P1;HPM_P2
2022/06/25 00:02:02;;;;;;;1.73;0.80;;;15.90;99.90;;;;;;5060132;28;20085;-74
2022/06/25 00:07:14;;;;;;;1.38;0.75;;;15.70;99.90;;;;;;5042503;28;20598;-74
2022/06/25 00:09:41;;;;;;;0.98;0.70;;;15.70;99.90;;;;;;5040103;28;20405;-74
2022/06/25 00:14:54;;;;;;;1.23;0.65;;;15.70;99.90;;;;;;5042585;28;20132;-73
2022/06/25 00:17:21;;;;;;;2.10;0.85;;;15.70;99.90;;;;;;5042830;28;20478;-73
2022/06/25 00:19:48;;;;;;;1.65;0.82;;;15.70;99.90;;;;;;5042292;28;20122;-73
2022/06/25 00:22:15;;;;;;;2.78;0.85;;;15.60;99.90;;;;;;5041828;28;20563;-73
2022/06/25 00:24:41;;;;;;;2.22;0.90;;;15.60;99.90;;;;;;5043474;28;20120;-73
2022/06/25 00:27:08;;;;;;;2.70;1.00;;;15.50;99.90;;;;;;5042748;28;20132;-73
2022/06/25 00:29:35;;;;;;;2.47;1.00;;;15.40;99.90;;;;;;5042464;28;20080;-74
2022/06/25 00:32:02;;;;;;;2.47;1.20;;;15.30;99.90;;;;;;5042288;28;20108;-73
2022/06/25 00:34:28;;;;;;;2.35;1.00;;;15.30;99.90;;;;;;5041876;28;20053;-73
2022/06/25 00:36:55;;;;;;;1.80;0.73;;;15.20;99.90;;;;;;5042078;28;20190;-73
2022/06/25 00:39:22;;;;;;;1.60;0.80;;;15.20;99.90;;;;;;5042014;28;20053;-74
2022/06/25 00:41:49;;;;;;;2.60;1.00;;;15.10;99.90;;;;;;5044248;28;20164;-74
2022/06/25 00:44:16;;;;;;;2.72;1.02;;;15.00;99.90;;;;;;5042412;28;20095;-74
2022/06/25 00:46:46;;;;;;;2.00;0.80;;;15.00;99.90;;;;;;5042669;28;20132;-74
2022/06/25 00:49:13;;;;;;;1.90;1.17;;;14.90;99.90;;;;;;5041660;28;20577;-73
2022/06/25 00:51:41;;;;;;;2.20;0.70;;;14.90;99.90;;;;;;5022538;28;20380;-74
2022/06/25 00:54:09;;;;;;;1.88;0.70;;;14.80;99.90;;;;;;5031581;28;20135;-74
2022/06/25 00:56:37;;;;;;;0.98;0.70;;;14.80;99.90;;;;;;5042481;28;20076;-74
2022/06/25 00:59:04;;;;;;;1.48;0.80;;;14.70;99.90;;;;;;5041433;28;20556;-74
2022/06/25 01:01:34;;;;;;;1.45;0.77;;;14.70;99.90;;;;;;5042500;28;20214;-74
2022/06/25 01:04:01;;;;;;;1.90;0.68;;;14.70;99.90;;;;;;5041325;28;20095;-74
2022/06/25 01:06:28;;;;;;;1.65;0.90;;;14.60;99.90;;;;;;5041965;28;20122;-74
2022/06/25 01:08:58;;;;;;;1.13;0.77;;;14.60;99.90;;;;;;5041438;28;20057;-74
2022/06/25 01:11:25;;;;;;;1.17;0.40;;;14.50;99.90;;;;;;5042287;28;20053;-74
2022/06/25 01:13:52;;;;;;;1.25;0.70;;;14.60;99.90;;;;;;5041989;28;20104;-74
2022/06/25 01:16:22;;;;;;;1.65;0.60;;;14.50;99.90;;;;;;5041942;28;20597;-74
2022/06/25 01:18:49;;;;;;;0.77;0.60;;;14.50;99.90;;;;;;5041426;28;20060;-74
2022/06/25 01:21:16;;;;;;;2.00;0.82;;;14.50;99.90;;;;;;5042029;28;20087;-76
2022/06/25 01:23:43;;;;;;;1.92;0.63;;;14.50;99.90;;;;;;5041002;28;20334;-74
2022/06/25 01:26:09;;;;;;;1.98;0.80;;;14.50;99.90;;;;;;5042175;28;20136;-74
2022/06/25 01:28:36;;;;;;;2.78;0.80;;;14.50;99.90;;;;;;5041836;28;20162;-74
2022/06/25 01:31:03;;;;;;;1.77;0.70;;;14.60;99.90;;;;;;5037427;28;20045;-74
2022/06/25 01:33:30;;;;;;;1.75;0.55;;;14.60;99.90;;;;;;5033048;28;20115;-73
2022/06/25 01:35:56;;;;;;;1.52;0.95;;;14.60;99.90;;;;;;5023242;28;20125;-74
2022/06/25 01:38:23;;;;;;;1.95;1.08;;;14.60;99.90;;;;;;5039584;28;20083;-73
2022/06/25 01:40:51;;;;;;;1.38;0.80;;;14.60;99.90;;;;;;5026802;28;20111;-74
2022/06/25 01:43:17;;;;;;;1.48;0.75;;;14.50;99.90;;;;;;5043656;28;20128;-74
2022/06/25 01:45:44;;;;;;;2.03;0.88;;;14.40;99.90;;;;;;5044047;28;20092;-74
2022/06/25 01:48:11;;;;;;;2.05;0.75;;;14.40;99.90;;;;;;5042309;28;20504;-74
2022/06/25 01:50:38;;;;;;;1.60;0.70;;;14.30;99.90;;;;;;5042355;28;20556;-76
2022/06/25 01:53:05;;;;;;;0.93;0.55;;;14.30;99.90;;;;;;5043054;28;20127;-74
2022/06/25 01:55:35;;;;;;;0.43;0.43;;;14.20;99.90;;;;;;5043377;28;20080;-74
2022/06/25 01:58:02;;;;;;;2.30;0.80;;;14.20;99.90;;;;;;5043574;28;20106;-74
2022/06/25 02:00:29;;;;;;;1.27;0.57;;;14.20;99.90;;;;;;5043037;28;20563;-74
2022/06/25 02:02:57;;;;;;;2.13;0.80;;;14.20;99.90;;;;;;5042731;28;20277;-74
2022/06/25 02:08:11;;;;;;;1.17;0.73;;;14.20;99.90;;;;;;5042534;28;20500;-75
2022/06/25 02:10:37;;;;;;;1.50;0.88;;;14.20;99.90;;;;;;5042542;28;20127;-74
2022/06/25 02:13:04;;;;;;;2.40;0.68;;;14.20;99.90;;;;;;5042963;28;20091;-74
2022/06/25 02:15:31;;;;;;;0.90;0.60;;;14.10;99.90;;;;;;5043024;28;20123;-74
2022/06/25 02:17:57;;;;;;;1.00;0.75;;;14.20;99.90;;;;;;5042854;28;20440;-74
2022/06/25 02:20:24;;;;;;;1.15;0.70;;;14.10;99.90;;;;;;5043644;28;20128;-74
2022/06/25 02:22:51;;;;;;;1.83;0.70;;;14.10;99.90;;;;;;5042980;28;20081;-74
2022/06/25 02:25:18;;;;;;;0.50;0.50;;;14.10;99.90;;;;;;5042495;28;20743;-74
2022/06/25 02:27:44;;;;;;;1.42;0.70;;;14.10;99.90;;;;;;5026356;28;20306;-74
2022/06/25 02:30:11;;;;;;;1.17;0.52;;;14.10;99.90;;;;;;5025921;28;20124;-74
2022/06/25 02:32:38;;;;;;;0.85;0.60;;;14.10;99.90;;;;;;5042871;28;20534;-74
2022/06/25 02:35:05;;;;;;;0.88;0.68;;;14.00;99.90;;;;;;5059065;28;20160;-74
2022/06/25 02:37:32;;;;;;;0.60;0.50;;;14.00;99.90;;;;;;5043949;28;20136;-74
2022/06/25 02:39:59;;;;;;;1.02;0.50;;;14.00;99.90;;;;;;5042055;28;20048;-74
2022/06/25 02:42:33;;;;;;;1.08;0.50;;;14.00;99.90;;;;;;5042043;28;20124;-74
2022/06/25 02:45:00;;;;;;;1.00;0.50;;;14.00;99.90;;;;;;5042315;28;20095;-74
2022/06/25 02:47:27;;;;;;;3.60;1.05;;;14.00;99.90;;;;;;5042809;28;20103;-74
2022/06/25 02:49:53;;;;;;;1.50;0.52;;;14.00;99.90;;;;;;5041682;28;20087;-74
2022/06/25 02:52:20;;;;;;;1.33;0.70;;;13.90;99.90;;;;;;5042787;28;20496;-74
2022/06/25 02:54:47;;;;;;;1.08;0.60;;;13.90;99.90;;;;;;5042620;28;20048;-74
2022/06/25 03:00:00;;;;;;;1.10;0.68;;;13.90;99.90;;;;;;5043651;28;20045;-74
2022/06/25 03:02:27;;;;;;;0.47;0.30;;;13.90;99.90;;;;;;5043355;28;20098;-73
2022/06/25 03:04:54;;;;;;;2.05;0.70;;;13.90;99.90;;;;;;5041504;28;20360;-73
2022/06/25 03:07:22;;;;;;;1.15;0.60;;;13.90;99.90;;;;;;5042397;28;20519;-73
2022/06/25 03:09:48;;;;;;;2.03;0.70;;;13.90;99.90;;;;;;5041369;28;20137;-74
2022/06/25 03:12:15;;;;;;;1.42;0.77;;;13.80;99.90;;;;;;5042043;28;20064;-73
2022/06/25 03:14:42;;;;;;;2.05;0.65;;;13.80;99.90;;;;;;5043128;28;20091;-74
2022/06/25 03:17:09;;;;;;;1.30;0.65;;;13.80;99.90;;;;;;5042845;28;20084;-74
2022/06/25 03:19:36;;;;;;;1.45;0.65;;;13.80;99.90;;;;;;5042314;28;20103;-74
2022/06/25 03:22:03;;;;;;;2.72;0.70;;;13.80;99.90;;;;;;5045599;28;20126;-73
2022/06/25 03:24:30;;;;;;;0.90;0.40;;;13.70;99.90;;;;;;5044981;28;20456;-73
2022/06/25 03:26:56;;;;;;;1.23;0.60;;;13.70;99.90;;;;;;5046343;28;20091;-74
2022/06/25 03:29:23;;;;;;;0.90;0.60;;;13.70;99.90;;;;;;5046007;28;20148;-73
2022/06/25 03:31:50;;;;;;;1.30;0.65;;;13.60;99.90;;;;;;5033876;28;20141;-73
2022/06/25 03:34:17;;;;;;;2.10;0.70;;;13.60;99.90;;;;;;5023419;28;20049;-73
2022/06/25 03:36:43;;;;;;;0.50;0.40;;;13.60;99.90;;;;;;5047731;28;20072;-74
2022/06/25 03:39:10;;;;;;;0.88;0.60;;;13.60;99.90;;;;;;5047010;28;20076;-74
2022/06/25 03:41:37;;;;;;;1.95;1.10;;;13.60;99.90;;;;;;5047892;28;20188;-74
2022/06/25 03:44:08;;;;;;;1.38;0.60;;;13.50;99.90;;;;;;5048599;28;20080;-74
2022/06/25 03:46:35;;;;;;;1.58;0.63;;;13.50;99.90;;;;;;5047769;28;20139;-74
2022/06/25 03:49:02;;;;;;;0.77;0.30;;;13.50;99.90;;;;;;5046920;28;20056;-74
2022/06/25 03:51:29;;;;;;;1.60;0.93;;;13.40;99.90;;;;;;5047668;28;20132;-75
2022/06/25 03:53:56;;;;;;;1.35;0.55;;;13.40;99.90;;;;;;5046631;28;20080;-73
2022/06/25 03:56:23;;;;;;;2.40;0.88;;;13.40;99.90;;;;;;5047340;28;20155;-74
2022/06/25 03:58:50;;;;;;;2.33;0.70;;;13.40;99.90;;;;;;5047153;28;20092;-74
2022/06/25 04:01:16;;;;;;;1.75;0.60;;;13.40;99.90;;;;;;5047337;28;20057;-74
2022/06/25 04:03:43;;;;;;;1.15;0.65;;;13.40;99.90;;;;;;5046441;28;20079;-74
2022/06/25 04:06:10;;;;;;;1.15;0.50;;;13.40;99.90;;;;;;5047044;28;20527;-74
2022/06/25 04:08:37;;;;;;;1.17;0.60;;;13.40;99.90;;;;;;5029554;28;20096;-74
2022/06/25 04:11:04;;;;;;;1.23;1.13;;;13.40;99.90;;;;;;5047228;28;20064;-74
2022/06/25 04:13:30;;;;;;;2.15;0.82;;;13.40;99.90;;;;;;5049066;28;20053;-74
2022/06/25 04:15:57;;;;;;;1.10;0.50;;;13.30;99.90;;;;;;5046916;28;20452;-75
2022/06/25 04:18:25;;;;;;;0.85;0.55;;;13.30;99.90;;;;;;5047320;28;20658;-73
2022/06/25 04:20:52;;;;;;;0.73;0.40;;;13.30;99.90;;;;;;5046116;28;20131;-73
2022/06/25 04:23:19;;;;;;;1.40;0.50;;;13.30;99.90;;;;;;5029749;28;20099;-74
2022/06/25 04:25:45;;;;;;;1.30;0.60;;;13.40;99.90;;;;;;5046705;28;20136;-73
2022/06/25 04:30:57;;;;;;;1.88;0.63;;;13.40;99.90;;;;;;5046240;28;20041;-73
2022/06/25 04:33:24;;;;;;;1.10;0.60;;;13.40;99.90;;;;;;5043223;28;20168;-73
2022/06/25 04:35:50;;;;;;;1.23;0.68;;;13.40;99.90;;;;;;5041038;28;20052;-73
2022/06/25 04:38:17;;;;;;;1.05;0.60;;;13.40;99.90;;;;;;5040705;28;20160;-73
2022/06/25 04:40:44;;;;;;;1.50;0.55;;;13.40;99.90;;;;;;5040397;28;20098;-73
2022/06/25 04:43:11;;;;;;;3.13;1.00;;;13.40;99.90;;;;;;5035260;28;20152;-73
2022/06/25 04:45:38;;;;;;;3.08;1.20;;;13.40;99.90;;;;;;5038318;28;20107;-74
2022/06/25 04:48:05;;;;;;;1.20;0.57;;;13.40;99.90;;;;;;5037994;28;20579;-73
2022/06/25 04:50:32;;;;;;;1.50;0.60;;;13.30;99.90;;;;;;5037158;28;20144;-74
2022/06/25 04:52:59;;;;;;;1.27;0.60;;;13.40;99.90;;;;;;5040071;28;20550;-73
2022/06/25 04:55:26;;;;;;;1.50;0.80;;;13.40;99.90;;;;;;5037613;28;20131;-73
2022/06/25 04:57:54;;;;;;;1.25;0.68;;;13.30;99.90;;;;;;5030580;28;20374;-73
2022/06/25 05:00:21;;;;;;;1.30;0.57;;;13.30;99.90;;;;;;5038301;28;20048;-73
2022/06/25 05:02:47;;;;;;;1.10;0.60;;;13.30;99.90;;;;;;5037451;28;20059;-73
2022/06/25 05:05:14;;;;;;;0.88;0.60;;;13.30;99.90;;;;;;5037003;28;20069;-74
2022/06/25 05:07:41;;;;;;;2.55;0.98;;;13.30;99.90;;;;;;5039997;28;20068;-73
2022/06/25 05:10:08;;;;;;;1.20;0.70;;;13.40;99.90;;;;;;5037297;28;20131;-73
2022/06/25 05:15:20;;;;;;;1.65;0.63;;;13.40;99.90;;;;;;5037795;28;20107;-73
2022/06/25 05:17:47;;;;;;;0.73;0.50;;;13.40;99.90;;;;;;5038299;28;20136;-74
2022/06/25 05:20:13;;;;;;;0.80;0.38;;;13.50;99.90;;;;;;5036343;28;20052;-73
2022/06/25 05:22:40;;;;;;;2.08;0.60;;;13.50;99.90;;;;;;5038615;28;20053;-73
2022/06/25 05:25:08;;;;;;;1.13;0.60;;;13.50;99.90;;;;;;5037007;28;20053;-74
2022/06/25 05:27:34;;;;;;;0.73;0.45;;;13.50;99.90;;;;;;5037163;28;20135;-74
2022/06/25 05:30:03;;;;;;;0.90;0.50;;;13.50;99.90;;;;;;5036602;28;20045;-74
2022/06/25 05:32:30;;;;;;;1.45;0.60;;;13.60;99.90;;;;;;5037340;28;20135;-74
2022/06/25 05:34:57;;;;;;;0.77;0.45;;;13.60;99.90;;;;;;5036030;28;20049;-74
2022/06/25 05:37:24;;;;;;;1.63;0.73;;;13.60;99.90;;;;;;5036694;28;20131;-74
2022/06/25 05:39:51;;;;;;;1.13;0.57;;;13.70;99.90;;;;;;5035656;28;20144;-73
2022/06/25 05:42:20;;;;;;;3.00;0.75;;;13.70;99.90;;;;;;5037336;28;20049;-74
2022/06/25 05:44:47;;;;;;;1.35;0.63;;;13.70;99.90;;;;;;5036054;28;20360;-73
2022/06/25 05:47:14;;;;;;;0.70;0.47;;;13.80;99.90;;;;;;5036501;28;20169;-73
2022/06/25 05:49:41;;;;;;;1.08;0.60;;;13.80;99.90;;;;;;5036607;28;20135;-73
2022/06/25 05:52:07;;;;;;;1.13;0.50;;;13.80;99.90;;;;;;5036075;28;20207;-74
2022/06/25 05:54:34;;;;;;;2.13;0.90;;;13.90;99.90;;;;;;5035826;28;20045;-74
2022/06/25 05:57:01;;;;;;;2.33;0.63;;;13.90;99.90;;;;;;5037200;28;20041;-73
2022/06/25 05:59:28;;;;;;;0.65;0.57;;;14.00;99.90;;;;;;5036297;28;20412;-73
2022/06/25 06:01:54;;;;;;;0.52;0.47;;;14.00;99.90;;;;;;5036672;28;20048;-73
2022/06/25 06:04:21;;;;;;;1.33;0.80;;;14.10;99.90;;;;;;5053150;28;20095;-74
2022/06/25 06:06:48;;;;;;;2.05;0.85;;;14.20;99.90;;;;;;5039503;28;20076;-74
2022/06/25 06:09:15;;;;;;;1.58;0.98;;;14.30;99.90;;;;;;5037434;28;20495;-74
2022/06/25 06:11:41;;;;;;;2.10;0.80;;;14.40;99.90;;;;;;5038042;28;20349;-74
2022/06/25 06:14:08;;;;;;;0.93;0.70;;;14.50;99.90;;;;;;5020261;28;20463;-74
2022/06/25 06:16:35;;;;;;;1.20;0.70;;;14.50;99.90;;;;;;5037913;28;20260;-75
2022/06/25 06:19:02;;;;;;;1.33;0.70;;;14.60;99.90;;;;;;5038816;28;20067;-75
2022/06/25 06:21:29;;;;;;;1.35;0.80;;;14.60;99.90;;;;;;5037373;28;20135;-75
2022/06/25 06:23:55;;;;;;;1.35;0.90;;;14.60;99.90;;;;;;5038709;28;20048;-75
2022/06/25 06:26:22;;;;;;;2.47;1.00;;;14.50;99.90;;;;;;5037841;28;20495;-75
2022/06/25 06:28:49;;;;;;;1.45;0.82;;;14.50;99.90;;;;;;5039533;28;20603;-75
2022/06/25 06:31:16;;;;;;;3.08;1.15;;;14.50;99.90;;;;;;5021019;28;20211;-75
2022/06/25 06:33:43;;;;;;;1.77;0.98;;;14.50;99.90;;;;;;5036564;28;20471;-75
2022/06/25 06:36:09;;;;;;;2.72;0.95;;;14.50;99.90;;;;;;5020872;28;20616;-74
2022/06/25 06:38:36;;;;;;;3.40;1.27;;;14.60;99.90;;;;;;5019822;28;20422;-74
2022/06/25 06:41:03;;;;;;;2.08;1.15;;;14.60;99.90;;;;;;5038871;28;20247;-75
2022/06/25 06:43:29;;;;;;;2.30;0.80;;;14.60;99.90;;;;;;5034720;28;20143;-75
2022/06/25 06:45:56;;;;;;;2.05;1.10;;;14.60;99.90;;;;;;5036232;28;20044;-75
2022/06/25 06:48:23;;;;;;;3.05;1.02;;;14.70;99.90;;;;;;5036940;28;20735;-75
2022/06/25 06:50:50;;;;;;;2.33;1.10;;;14.70;99.90;;;;;;5036238;28;20430;-75
2022/06/25 06:53:18;;;;;;;2.47;0.98;;;14.80;99.90;;;;;;5052840;28;20056;-74
2022/06/25 06:55:45;;;;;;;1.92;0.88;;;14.80;99.90;;;;;;5036910;28;20132;-75
2022/06/25 06:58:12;;;;;;;1.98;1.00;;;14.90;99.90;;;;;;5037354;28;20467;-75
2022/06/25 07:00:39;;;;;;;2.42;0.98;;;15.00;99.90;;;;;;5037020;28;20052;-75
2022/06/25 07:03:05;;;;;;;2.08;1.20;;;15.10;99.90;;;;;;5052869;28;20237;-74
2022/06/25 07:05:32;;;;;;;0.93;0.75;;;15.10;99.90;;;;;;5036327;28;20494;-75
2022/06/25 07:07:59;;;;;;;1.70;1.00;;;15.30;99.90;;;;;;5037330;28;20397;-75
2022/06/25 07:10:26;;;;;;;1.48;0.85;;;15.40;99.90;;;;;;5037590;28;20143;-75
2022/06/25 07:12:53;;;;;;;2.47;1.05;;;15.50;99.90;;;;;;5053693;28;20087;-75
2022/06/25 07:15:19;;;;;;;3.95;1.67;;;15.60;99.90;;;;;;5036071;28;20140;-75
2022/06/25 07:17:46;;;;;;;2.70;1.10;;;15.60;99.90;;;;;;5038733;28;20116;-74
2022/06/25 07:20:13;;;;;;;3.42;1.40;;;15.60;99.90;;;;;;5036736;28;20363;-75
2022/06/25 07:22:40;;;;;;;4.00;1.42;;;15.60;99.90;;;;;;5037292;28;20084;-73
2022/06/25 07:25:07;;;;;;;3.75;1.70;;;15.60;99.90;;;;;;5037703;28;20142;-73
2022/06/25 07:27:34;;;;;;;3.65;1.80;;;15.50;99.90;;;;;;5038268;28;20151;-73
2022/06/25 07:30:01;;;;;;;2.83;1.30;;;15.50;99.90;;;;;;5036596;28;20399;-74
2022/06/25 07:32:28;;;;;;;4.03;1.42;;;15.50;99.90;;;;;;5037980;28;20226;-74
2022/06/25 07:34:55;;;;;;;2.50;1.35;;;15.50;99.90;;;;;;5035765;28;20084;-73
2022/06/25 07:37:22;;;;;;;4.35;1.52;;;15.60;99.90;;;;;;5037132;28;20655;-74
2022/06/25 07:39:48;;;;;;;2.58;1.23;;;15.60;99.90;;;;;;5037125;28;20475;-74
2022/06/25 07:42:15;;;;;;;4.15;1.33;;;15.70;99.90;;;;;;5037276;28;20136;-75
2022/06/25 07:44:42;;;;;;;4.07;1.45;;;15.80;99.90;;;;;;5035661;28;20136;-74
2022/06/25 07:47:09;;;;;;;2.85;1.42;;;16.00;99.90;;;;;;5036441;28;20059;-74
2022/06/25 07:51:56;;;;;;;3.88;1.48;;;16.10;99.90;;;;;;5037301;28;20114;-74
2022/06/25 07:52:23;;;;;;;2.70;1.38;;;16.30;99.90;;;;;;5038965;28;20049;-74
2022/06/25 07:54:49;;;;;;;1.80;1.23;;;16.40;99.90;;;;;;5037498;28;20094;-74
2022/06/25 07:57:16;;;;;;;1.67;0.93;;;16.60;99.90;;;;;;5038271;28;20132;-74
2022/06/25 07:59:43;;;;;;;1.50;0.93;;;16.80;99.90;;;;;;5037842;28;20160;-74
2022/06/25 08:02:10;;;;;;;1.50;0.98;;;16.90;99.90;;;;;;5036101;28;20260;-74
2022/06/25 08:04:37;;;;;;;1.33;0.85;;;17.00;99.90;;;;;;5035251;28;20386;-74
2022/06/25 08:07:03;;;;;;;2.25;1.00;;;17.20;99.90;;;;;;5036287;28;20079;-74
2022/06/25 08:09:30;;;;;;;1.63;0.80;;;17.30;99.90;;;;;;5039254;28;20128;-74
2022/06/25 08:11:57;;;;;;;3.90;1.05;;;17.40;99.90;;;;;;5040077;28;20473;-74
2022/06/25 08:14:24;;;;;;;1.63;0.90;;;17.40;99.90;;;;;;5021845;28;20223;-74
2022/06/25 08:16:50;;;;;;;2.92;1.67;;;17.40;99.90;;;;;;5023827;28;20152;-74
2022/06/25 08:19:17;;;;;;;3.55;1.23;;;17.40;99.90;;;;;;5022673;28;20488;-74
2022/06/25 08:21:44;;;;;;;2.13;1.15;;;17.50;99.90;;;;;;5022356;28;20124;-74
2022/06/25 08:24:11;;;;;;;1.67;0.93;;;17.70;99.90;;;;;;5034688;28;20064;-74
2022/06/25 08:26:37;;;;;;;1.48;0.90;;;17.90;99.90;;;;;;5040738;28;20112;-74
2022/06/25 08:29:04;;;;;;;1.83;0.90;;;17.90;99.90;;;;;;5017382;28;20130;-75
2022/06/25 08:31:31;;;;;;;2.28;1.20;;;17.80;99.90;;;;;;5041227;28;20057;-74
2022/06/25 08:33:58;;;;;;;2.53;1.00;;;17.70;99.90;;;;;;5036248;28;20130;-73
2022/06/25 08:36:25;;;;;;;2.17;0.90;;;17.70;99.90;;;;;;5037629;28;20527;-74
2022/06/25 08:38:51;;;;;;;1.38;0.85;;;17.60;99.90;;;;;;5055397;28;20087;-74
2022/06/25 08:41:18;;;;;;;1.30;0.90;;;17.50;99.90;;;;;;5040885;28;20060;-74
2022/06/25 08:43:45;;;;;;;3.65;1.42;;;17.40;99.90;;;;;;5023087;28;20519;-74
2022/06/25 08:46:12;;;;;;;1.75;0.88;;;17.30;99.90;;;;;;5025274;28;20514;-74
2022/06/25 08:48:40;;;;;;;2.40;1.02;;;17.40;99.90;;;;;;5041213;28;20127;-74
2022/06/25 08:51:08;;;;;;;2.17;1.00;;;17.50;99.90;;;;;;5043413;28;20142;-75
2022/06/25 08:53:35;;;;;;;2.10;1.10;;;17.80;99.90;;;;;;5041305;28;20109;-74
2022/06/25 08:56:02;;;;;;;2.53;0.90;;;17.90;99.90;;;;;;5058065;28;20092;-74
2022/06/25 08:58:29;;;;;;;2.40;1.02;;;17.90;99.90;;;;;;5059117;28;20049;-74
2022/06/25 09:00:56;;;;;;;1.63;0.90;;;18.00;99.90;;;;;;5021722;28;20067;-74
2022/06/25 09:03:25;;;;;;;2.90;1.27;;;18.10;99.90;;;;;;5041016;28;20536;-74
2022/06/25 09:05:51;;;;;;;2.67;1.30;;;18.30;99.90;;;;;;5041111;28;20155;-74
2022/06/25 09:08:18;;;;;;;2.20;1.10;;;18.50;99.90;;;;;;5042654;28;20568;-74
2022/06/25 09:10:46;;;;;;;2.22;1.00;;;18.80;99.90;;;;;;5042174;28;20144;-74
2022/06/25 09:13:13;;;;;;;4.78;1.73;;;19.00;99.90;;;;;;5041690;28;20145;-74
2022/06/25 09:15:42;;;;;;;2.88;1.52;;;19.20;99.90;;;;;;5043772;28;20466;-74
2022/06/25 09:18:16;;;;;;;2.65;1.25;;;19.30;99.90;;;;;;5044258;28;20181;-74
2022/06/25 09:20:59;;;;;;;3.03;1.30;;;19.50;99.90;;;;;;5047466;28;20502;-74
2022/06/25 09:23:27;;;;;;;2.85;1.30;;;19.40;99.90;;;;;;5059988;28;20781;-74
2022/06/25 09:26:08;;;;;;;1.38;1.00;;;19.40;99.70;;;;;;5041594;28;20095;-75
2022/06/25 09:28:36;;;;;;;4.03;1.40;;;19.40;99.90;;;;;;5044009;28;20049;-75
2022/06/25 09:31:03;;;;;;;1.35;0.98;;;19.40;99.90;;;;;;5023683;28;20131;-74
2022/06/25 09:33:30;;;;;;;2.78;1.10;;;19.40;99.90;;;;;;5040705;28;20424;-75
2022/06/25 09:35:57;;;;;;;2.22;1.33;;;19.30;99.90;;;;;;5043859;28;20867;-74
2022/06/25 09:38:24;;;;;;;2.22;1.40;;;19.30;99.30;;;;;;5043558;28;20151;-74
2022/06/25 09:40:57;;;;;;;1.70;1.13;;;19.40;98.60;;;;;;5044884;28;20465;-74
2022/06/25 09:43:35;;;;;;;1.95;1.20;;;19.30;99.10;;;;;;5045032;28;20053;-75
2022/06/25 09:46:03;;;;;;;1.45;0.90;;;19.40;99.60;;;;;;5041983;28;20049;-75
2022/06/25 09:48:32;;;;;;;1.25;0.77;;;19.70;99.90;;;;;;5040800;28;20041;-75
2022/06/25 09:51:26;;;;;;;3.03;1.10;;;20.00;99.70;;;;;;5040510;28;20072;-74
2022/06/25 09:53:57;;;;;;;2.83;1.20;;;20.00;99.30;;;;;;5039399;28;20462;-75
2022/06/25 09:56:25;;;;;;;3.92;1.40;;;19.60;99.00;;;;;;5028167;28;20041;-74
2022/06/25 09:58:53;;;;;;;2.35;1.08;;;19.40;98.90;;;;;;5042173;28;20045;-75
2022/06/25 10:01:25;;;;;;;2.63;1.20;;;19.30;98.80;;;;;;5027719;28;20148;-75
2022/06/25 10:03:52;;;;;;;2.47;1.17;;;19.30;99.80;;;;;;5042888;28;20049;-80
2022/06/25 10:06:20;;;;;;;1.73;1.10;;;19.40;99.20;;;;;;5042837;28;20072;-81
2022/06/25 10:08:48;;;;;;;2.70;1.30;;;19.50;99.30;;;;;;5022817;28;20073;-80
2022/06/25 10:11:16;;;;;;;1.02;0.77;;;19.70;99.10;;;;;;5046526;28;20065;-80
2022/06/25 10:13:43;;;;;;;2.25;1.10;;;19.80;98.40;;;;;;5043693;28;20087;-80
2022/06/25 10:16:10;;;;;;;2.15;0.82;;;19.90;98.30;;;;;;5040149;28;20144;-80
2022/06/25 10:18:36;;;;;;;1.45;0.90;;;19.90;98.60;;;;;;5042236;28;20175;-80
2022/06/25 10:21:03;;;;;;;1.75;1.00;;;20.00;98.90;;;;;;5026074;28;20092;-80
2022/06/25 10:23:38;;;;;;;1.70;0.90;;;20.10;97.80;;;;;;5042761;28;20052;-80
2022/06/25 10:26:05;;;;;;;1.88;1.05;;;20.00;96.70;;;;;;5042503;28;20069;-80
2022/06/25 10:28:32;;;;;;;2.15;1.02;;;20.00;96.80;;;;;;5024188;28;20072;-80
2022/06/25 10:31:01;;;;;;;1.38;0.88;;;20.00;96.70;;;;;;5041155;28;20138;-80
2022/06/25 10:33:29;;;;;;;1.73;0.80;;;20.20;97.10;;;;;;5040294;28;20208;-80
2022/06/25 10:35:58;;;;;;;2.30;1.08;;;20.50;96.80;;;;;;5036239;28;20140;-68
2022/06/25 10:38:26;;;;;;;2.95;1.27;;;20.70;95.80;;;;;;5040025;28;20250;-68
2022/06/25 10:47:29;;;;;;;2.03;1.05;;;20.40;96.20;;;;;;4988151;28;20045;-91
2022/06/25 10:50:18;;;;;;;3.58;1.30;;;20.30;96.20;;;;;;5015017;28;20144;-90
2022/06/25 10:53:11;;;;;;;2.97;1.17;;;20.30;94.10;;;;;;5026523;28;20053;-88
2022/06/25 10:56:16;;;;;;;1.98;1.05;;;20.30;94.70;;;;;;5017943;28;20123;-89
2022/06/25 10:59:23;;;;;;;1.80;0.98;;;20.40;94.40;;;;;;4988610;28;20049;-90
2022/06/25 11:02:23;;;;;;;1.05;0.80;;;20.40;94.30;;;;;;5012697;28;20041;-91
2022/06/25 11:05:05;;;;;;;2.20;0.90;;;20.70;94.60;;;;;;5014005;28;20132;-91
2022/06/25 11:07:58;;;;;;;1.20;0.60;;;21.00;94.40;;;;;;5011701;28;20057;-92
2022/06/25 11:18:29;;;;;;;1.33;0.70;;;21.40;93.80;;;;;;4982708;28;20089;-91
2022/06/25 11:21:12;;;;;;;;;;;21.10;93.50;;;;;;4900371;29;20138;-90
2022/06/25 11:30:39;;;;;;;2.50;1.20;;;21.20;92.70;;;;;;4920413;29;20059;-90
2022/06/25 11:34:00;;;;;;;;;;;;;;;;;;;;;
2022/06/25 11:37:04;;;;;;;3.13;1.20;;;21.20;92.50;;;;;;4902958;29;20160;-90
2022/06/25 11:39:41;;;;;;;5.35;1.33;;;21.40;91.30;;;;;;4905185;29;20594;-90
2022/06/25 11:45:16;;;;;;;1.33;0.80;;;21.40;91.60;;;;;;4900419;29;20049;-90
2022/06/25 11:47:45;;;;;;;1.63;0.80;;;21.60;91.80;;;;;;4937198;28;20166;-91
2022/06/25 11:50:14;;;;;;;2.28;1.00;;;21.50;92.40;;;;;;4959828;28;20057;-88
2022/06/25 11:52:45;;;;;;;2.10;0.95;;;21.40;91.60;;;;;;4996075;28;20055;-91
2022/06/25 11:55:12;;;;;;;2.30;1.10;;;21.50;91.40;;;;;;4995304;28;20057;-90
2022/06/25 11:58:07;;;;;;;1.48;0.93;;;21.40;91.80;;;;;;5012709;28;20057;-92
2022/06/25 12:00:34;;;;;;;1.75;0.93;;;21.50;90.40;;;;;;5019450;28;20128;-89
2022/06/25 12:03:04;;;;;;;1.67;0.95;;;21.50;91.10;;;;;;4996358;28;20108;-91
2022/06/25 12:05:34;;;;;;;2.95;0.90;;;21.60;91.10;;;;;;4990665;28;20065;-91
2022/06/25 12:08:01;;;;;;;3.75;1.50;;;21.60;91.40;;;;;;4992893;28;20076;-91
2022/06/25 12:10:29;;;;;;;2.53;1.10;;;21.50;91.60;;;;;;5004867;28;20048;-87
2022/06/25 12:12:56;;;;;;;1.92;1.10;;;21.40;91.90;;;;;;5000148;28;20053;-89
2022/06/25 12:15:32;;;;;;;2.42;1.10;;;21.50;91.90;;;;;;5004089;28;20053;-90
2022/06/25 12:18:03;;;;;;;1.92;0.90;;;21.60;92.10;;;;;;4991111;28;20066;-90
2022/06/25 12:20:31;;;;;;;2.22;0.82;;;21.80;91.90;;;;;;5009375;28;20060;-90
2022/06/25 12:23:00;;;;;;;1.30;0.80;;;22.20;91.00;;;;;;4995953;28;20499;-89
2022/06/25 12:25:29;;;;;;;1.85;0.80;;;22.60;90.50;;;;;;4992018;28;20071;-90
2022/06/25 12:28:02;;;;;;;1.63;1.00;;;22.80;90.10;;;;;;4995547;28;20058;-91
2022/06/25 12:30:46;;;;;;;1.25;0.82;;;22.90;88.80;;;;;;5023922;28;20050;-91
2022/06/25 12:33:26;;;;;;;1.30;0.70;;;23.20;89.20;;;;;;5015920;28;20049;-91
2022/06/25 12:36:26;;;;;;;1.15;0.90;;;23.30;86.10;;;;;;4987953;28;20274;-92
2022/06/25 12:38:53;;;;;;;2.45;1.02;;;24.00;89.30;;;;;;4994020;28;20551;-87
2022/06/25 12:41:43;;;;;;;2.00;1.10;;;24.30;86.70;;;;;;4991840;28;20088;-93
2022/06/25 12:44:30;;;;;;;2.08;1.10;;;24.50;83.80;;;;;;5016665;28;20061;-93
2022/06/25 12:51:40;;;;;;;1.27;0.77;;;24.80;81.10;;;;;;4891722;29;20054;-89
2022/06/25 12:54:07;;;;;;;2.17;1.10;;;24.60;80.50;;;;;;4890224;29;20104;-90
2022/06/25 12:56:37;;;;;;;2.03;0.60;;;24.50;80.50;;;;;;4895890;29;20060;-89
2022/06/25 12:59:06;;;;;;;1.92;1.00;;;24.80;80.90;;;;;;4927905;28;20097;-90
2022/06/25 13:07:26;;;;;;;1.08;0.68;;;24.30;80.10;;;;;;5048180;28;20064;-85
2022/06/25 13:09:53;;;;;;;1.90;0.82;;;24.10;81.40;;;;;;5008185;28;20044;-85
2022/06/25 13:12:30;;;;;;;1.70;0.88;;;23.90;82.40;;;;;;5016793;28;20419;-87
2022/06/25 13:14:58;;;;;;;1.25;0.85;;;24.10;83.40;;;;;;5025672;28;20146;-87
2022/06/25 13:17:25;;;;;;;1.25;0.85;;;24.40;82.50;;;;;;5025601;28;20401;-84
2022/06/25 13:19:52;;;;;;;2.15;0.80;;;24.30;82.00;;;;;;5014806;28;20147;-83
2022/06/25 13:22:19;;;;;;;1.83;0.82;;;24.70;81.60;;;;;;4997473;28;20107;-83
2022/06/25 13:24:46;;;;;;;2.42;0.93;;;24.60;80.80;;;;;;5021325;28;20666;-85
2022/06/25 13:27:13;;;;;;;1.95;1.00;;;24.10;81.80;;;;;;5008735;28;20152;-84
2022/06/25 13:29:39;;;;;;;1.27;0.80;;;24.40;81.50;;;;;;5007714;28;20547;-84
2022/06/25 13:32:06;;;;;;;1.25;0.75;;;24.90;80.40;;;;;;5008687;28;20104;-84
2022/06/25 13:34:34;;;;;;;1.67;0.70;;;25.60;78.60;;;;;;5007704;28;20044;-84
2022/06/25 13:37:01;;;;;;;1.40;0.70;;;25.60;79.00;;;;;;5008667;28;20149;-85
2022/06/25 13:39:28;;;;;;;1.50;0.82;;;25.40;79.20;;;;;;4975859;28;20122;-84
2022/06/25 13:41:55;;;;;;;1.58;0.95;;;25.50;78.70;;;;;;5005433;28;20634;-84
2022/06/25 13:44:21;;;;;;;1.10;0.80;;;25.80;79.10;;;;;;4992092;28;20140;-85
2022/06/25 13:46:48;;;;;;;1.20;0.80;;;26.70;76.20;;;;;;4992028;28;20056;-85
2022/06/25 13:49:15;;;;;;;1.98;1.10;;;26.80;75.50;;;;;;5008087;28;20060;-84